sensor_id;sensor_type;location;lat;lon;timestamp;temperature;humidity
48551;DHT22;34397;51.176;6.738;2022-12-29T00:01:47;8.60;75.90
48551;DHT22;34397;51.176;6.738;2022-12-29T00:04:19;8.70;75.80
48551;DHT22;34397;51.176;6.738;2022-12-29T00:06:52;8.70;75.80
48551;DHT22;34397;51.176;6.738;2022-12-29T00:09:25;8.70;75.50
48551;DHT22;34397;51.176;6.738;2022-12-29T00:11:58;8.80;75.70
48551;DHT22;34397;51.176;6.738;2022-12-29T00:14:30;8.90;75.00
48551;DHT22;34397;51.176;6.738;2022-12-29T00:17:20;8.90;74.30
48551;DHT22;34397;51.176;6.738;2022-12-29T00:19:52;8.90;73.20
48551;DHT22;34397;51.176;6.738;2022-12-29T00:22:42;8.90;73.00
48551;DHT22;34397;51.176;6.738;2022-12-29T00:25:31;8.90;73.30
48551;DHT22;34397;51.176;6.738;2022-12-29T00:28:22;8.90;73.60
48551;DHT22;34397;51.176;6.738;2022-12-29T00:31:12;8.90;73.90
48551;DHT22;34397;51.176;6.738;2022-12-29T00:34:01;8.80;74.00
48551;DHT22;34397;51.176;6.738;2022-12-29T00:36:50;8.80;74.10
48551;DHT22;34397;51.176;6.738;2022-12-29T00:39:22;8.80;74.90
48551;DHT22;34397;51.176;6.738;2022-12-29T00:42:12;8.80;75.60
48551;DHT22;34397;51.176;6.738;2022-12-29T00:45:03;8.80;74.90
48551;DHT22;34397;51.176;6.738;2022-12-29T00:47:35;8.80;75.10
48551;DHT22;34397;51.176;6.738;2022-12-29T00:50:08;8.80;75.10
48551;DHT22;34397;51.176;6.738;2022-12-29T00:52:38;8.90;75.10
48551;DHT22;34397;51.176;6.738;2022-12-29T00:55:10;8.90;74.90
48551;DHT22;34397;51.176;6.738;2022-12-29T00:57:42;9.00;75.00
48551;DHT22;34397;51.176;6.738;2022-12-29T01:00:15;9.00;74.80
48551;DHT22;34397;51.176;6.738;2022-12-29T01:02:47;9.00;74.50
48551;DHT22;34397;51.176;6.738;2022-12-29T01:05:19;9.00;74.70
48551;DHT22;34397;51.176;6.738;2022-12-29T01:07:51;9.10;74.70
48551;DHT22;34397;51.176;6.738;2022-12-29T01:10:23;9.20;74.50
48551;DHT22;34397;51.176;6.738;2022-12-29T01:12:54;9.20;74.10
48551;DHT22;34397;51.176;6.738;2022-12-29T01:15:27;9.20;73.80
48551;DHT22;34397;51.176;6.738;2022-12-29T01:17:58;9.30;73.60
48551;DHT22;34397;51.176;6.738;2022-12-29T01:20:30;9.40;73.60
48551;DHT22;34397;51.176;6.738;2022-12-29T01:23:02;9.40;73.20
48551;DHT22;34397;51.176;6.738;2022-12-29T01:25:34;9.40;73.30
48551;DHT22;34397;51.176;6.738;2022-12-29T01:28:06;9.40;73.20
48551;DHT22;34397;51.176;6.738;2022-12-29T01:30:39;9.40;73.10
48551;DHT22;34397;51.176;6.738;2022-12-29T01:33:11;9.40;73.00
48551;DHT22;34397;51.176;6.738;2022-12-29T01:35:43;9.40;72.50
48551;DHT22;34397;51.176;6.738;2022-12-29T01:38:15;9.40;72.20
48551;DHT22;34397;51.176;6.738;2022-12-29T01:40:47;9.40;71.90
48551;DHT22;34397;51.176;6.738;2022-12-29T01:43:19;9.50;71.80
48551;DHT22;34397;51.176;6.738;2022-12-29T01:45:53;9.40;71.70
48551;DHT22;34397;51.176;6.738;2022-12-29T01:48:26;9.50;71.50
48551;DHT22;34397;51.176;6.738;2022-12-29T01:50:57;9.50;71.30
48551;DHT22;34397;51.176;6.738;2022-12-29T01:53:31;9.60;70.90
48551;DHT22;34397;51.176;6.738;2022-12-29T01:56:07;9.50;70.30
48551;DHT22;34397;51.176;6.738;2022-12-29T01:58:45;9.60;70.50
48551;DHT22;34397;51.176;6.738;2022-12-29T02:01:21;9.60;70.10
48551;DHT22;34397;51.176;6.738;2022-12-29T02:03:53;9.60;69.90
48551;DHT22;34397;51.176;6.738;2022-12-29T02:06:29;9.60;69.60
48551;DHT22;34397;51.176;6.738;2022-12-29T02:09:03;9.60;69.30
48551;DHT22;34397;51.176;6.738;2022-12-29T02:11:36;9.60;69.50
48551;DHT22;34397;51.176;6.738;2022-12-29T02:14:09;9.60;69.20
48551;DHT22;34397;51.176;6.738;2022-12-29T02:16:58;9.60;68.90
48551;DHT22;34397;51.176;6.738;2022-12-29T02:20:11;9.70;68.40
48551;DHT22;34397;51.176;6.738;2022-12-29T02:23:17;9.70;68.30
48551;DHT22;34397;51.176;6.738;2022-12-29T02:26:35;9.60;67.80
48551;DHT22;34397;51.176;6.738;2022-12-29T02:29:44;9.60;67.60
48551;DHT22;34397;51.176;6.738;2022-12-29T02:32:37;9.60;67.30
48551;DHT22;34397;51.176;6.738;2022-12-29T02:35:16;9.60;67.20
48551;DHT22;34397;51.176;6.738;2022-12-29T02:37:59;9.70;67.00
48551;DHT22;34397;51.176;6.738;2022-12-29T02:40:40;9.70;66.80
48551;DHT22;34397;51.176;6.738;2022-12-29T02:43:24;9.60;66.90
48551;DHT22;34397;51.176;6.738;2022-12-29T02:46:02;9.70;66.90
48551;DHT22;34397;51.176;6.738;2022-12-29T02:48:43;9.70;67.10
48551;DHT22;34397;51.176;6.738;2022-12-29T02:51:20;9.70;66.80
48551;DHT22;34397;51.176;6.738;2022-12-29T02:53:56;9.70;67.00
48551;DHT22;34397;51.176;6.738;2022-12-29T02:56:46;9.70;66.90
48551;DHT22;34397;51.176;6.738;2022-12-29T02:59:19;9.80;67.10
48551;DHT22;34397;51.176;6.738;2022-12-29T03:02:06;9.80;67.10
48551;DHT22;34397;51.176;6.738;2022-12-29T03:05:03;9.80;67.20
48551;DHT22;34397;51.176;6.738;2022-12-29T03:07:46;9.80;67.70
48551;DHT22;34397;51.176;6.738;2022-12-29T03:10:35;9.80;67.40
48551;DHT22;34397;51.176;6.738;2022-12-29T03:13:18;9.80;67.20
48551;DHT22;34397;51.176;6.738;2022-12-29T03:16:18;9.80;67.50
48551;DHT22;34397;51.176;6.738;2022-12-29T03:18:58;9.80;67.40
48551;DHT22;34397;51.176;6.738;2022-12-29T03:21:37;9.90;67.60
48551;DHT22;34397;51.176;6.738;2022-12-29T03:24:30;9.80;67.40
48551;DHT22;34397;51.176;6.738;2022-12-29T03:27:05;9.90;67.30
48551;DHT22;34397;51.176;6.738;2022-12-29T03:29:42;9.90;67.40
48551;DHT22;34397;51.176;6.738;2022-12-29T03:32:16;9.90;67.30
48551;DHT22;34397;51.176;6.738;2022-12-29T03:34:49;9.90;66.90
48551;DHT22;34397;51.176;6.738;2022-12-29T03:37:27;9.90;67.40
48551;DHT22;34397;51.176;6.738;2022-12-29T03:40:02;10.00;67.50
48551;DHT22;34397;51.176;6.738;2022-12-29T03:42:35;10.00;67.40
48551;DHT22;34397;51.176;6.738;2022-12-29T03:45:10;10.00;67.30
48551;DHT22;34397;51.176;6.738;2022-12-29T03:47:42;10.00;67.10
48551;DHT22;34397;51.176;6.738;2022-12-29T03:50:14;10.00;67.20
48551;DHT22;34397;51.176;6.738;2022-12-29T03:52:47;10.00;67.40
48551;DHT22;34397;51.176;6.738;2022-12-29T03:55:19;10.00;67.30
48551;DHT22;34397;51.176;6.738;2022-12-29T03:57:51;10.10;67.30
48551;DHT22;34397;51.176;6.738;2022-12-29T04:00:23;10.00;67.20
48551;DHT22;34397;51.176;6.738;2022-12-29T04:02:54;10.10;67.30
48551;DHT22;34397;51.176;6.738;2022-12-29T04:05:26;10.10;67.20
48551;DHT22;34397;51.176;6.738;2022-12-29T04:07:59;10.10;67.00
48551;DHT22;34397;51.176;6.738;2022-12-29T04:10:31;10.10;66.90
48551;DHT22;34397;51.176;6.738;2022-12-29T04:13:03;10.10;67.00
48551;DHT22;34397;51.176;6.738;2022-12-29T04:15:35;10.10;66.60
48551;DHT22;34397;51.176;6.738;2022-12-29T04:18:07;10.10;66.70
48551;DHT22;34397;51.176;6.738;2022-12-29T04:20:39;10.00;66.80
48551;DHT22;34397;51.176;6.738;2022-12-29T04:23:34;10.10;66.80
48551;DHT22;34397;51.176;6.738;2022-12-29T04:26:07;10.10;66.20
48551;DHT22;34397;51.176;6.738;2022-12-29T04:28:39;10.10;66.20
48551;DHT22;34397;51.176;6.738;2022-12-29T04:31:11;10.00;65.90
48551;DHT22;34397;51.176;6.738;2022-12-29T04:33:43;10.00;66.10
48551;DHT22;34397;51.176;6.738;2022-12-29T04:36:15;10.10;65.90
48551;DHT22;34397;51.176;6.738;2022-12-29T04:38:48;10.10;65.60
48551;DHT22;34397;51.176;6.738;2022-12-29T04:41:20;10.10;65.40
48551;DHT22;34397;51.176;6.738;2022-12-29T04:43:51;10.20;65.10
48551;DHT22;34397;51.176;6.738;2022-12-29T04:46:23;10.20;64.90
48551;DHT22;34397;51.176;6.738;2022-12-29T04:48:55;10.20;64.60
48551;DHT22;34397;51.176;6.738;2022-12-29T04:51:27;10.20;64.60
48551;DHT22;34397;51.176;6.738;2022-12-29T04:54:00;10.20;64.70
48551;DHT22;34397;51.176;6.738;2022-12-29T04:56:32;10.20;64.40
48551;DHT22;34397;51.176;6.738;2022-12-29T04:59:03;10.20;64.50
48551;DHT22;34397;51.176;6.738;2022-12-29T05:01:35;10.20;64.50
48551;DHT22;34397;51.176;6.738;2022-12-29T05:04:07;10.20;64.40
48551;DHT22;34397;51.176;6.738;2022-12-29T05:06:39;10.20;64.50
48551;DHT22;34397;51.176;6.738;2022-12-29T05:09:12;10.20;64.40
48551;DHT22;34397;51.176;6.738;2022-12-29T05:11:44;10.20;64.10
48551;DHT22;34397;51.176;6.738;2022-12-29T05:14:16;10.20;64.20
48551;DHT22;34397;51.176;6.738;2022-12-29T05:16:47;10.20;63.90
48551;DHT22;34397;51.176;6.738;2022-12-29T05:19:19;10.20;64.00
48551;DHT22;34397;51.176;6.738;2022-12-29T05:21:51;10.20;64.00
48551;DHT22;34397;51.176;6.738;2022-12-29T05:24:25;10.20;64.10
48551;DHT22;34397;51.176;6.738;2022-12-29T05:26:57;10.20;64.00
48551;DHT22;34397;51.176;6.738;2022-12-29T05:29:29;10.30;63.90
48551;DHT22;34397;51.176;6.738;2022-12-29T05:32:01;10.20;63.40
48551;DHT22;34397;51.176;6.738;2022-12-29T05:34:32;10.30;63.90
48551;DHT22;34397;51.176;6.738;2022-12-29T05:37:04;10.30;63.90
48551;DHT22;34397;51.176;6.738;2022-12-29T05:39:37;10.30;63.80
48551;DHT22;34397;51.176;6.738;2022-12-29T05:42:09;10.30;63.40
48551;DHT22;34397;51.176;6.738;2022-12-29T05:44:41;10.30;63.60
48551;DHT22;34397;51.176;6.738;2022-12-29T05:47:13;10.30;63.40
48551;DHT22;34397;51.176;6.738;2022-12-29T05:49:45;10.20;63.50
48551;DHT22;34397;51.176;6.738;2022-12-29T05:52:16;10.20;63.40
48551;DHT22;34397;51.176;6.738;2022-12-29T05:54:50;10.10;63.10
48551;DHT22;34397;51.176;6.738;2022-12-29T05:57:22;10.10;63.30
48551;DHT22;34397;51.176;6.738;2022-12-29T05:59:53;10.10;63.10
48551;DHT22;34397;51.176;6.738;2022-12-29T06:02:25;10.00;64.10
48551;DHT22;34397;51.176;6.738;2022-12-29T06:04:57;10.10;63.30
48551;DHT22;34397;51.176;6.738;2022-12-29T06:07:29;10.10;63.10
48551;DHT22;34397;51.176;6.738;2022-12-29T06:10:03;10.10;63.40
48551;DHT22;34397;51.176;6.738;2022-12-29T06:12:35;10.00;63.10
48551;DHT22;34397;51.176;6.738;2022-12-29T06:15:07;10.10;63.00
48551;DHT22;34397;51.176;6.738;2022-12-29T06:17:40;10.00;63.20
48551;DHT22;34397;51.176;6.738;2022-12-29T06:20:12;10.00;63.00
48551;DHT22;34397;51.176;6.738;2022-12-29T06:22:44;9.90;63.40
48551;DHT22;34397;51.176;6.738;2022-12-29T06:25:18;9.90;63.50
48551;DHT22;34397;51.176;6.738;2022-12-29T06:27:50;10.00;63.60
48551;DHT22;34397;51.176;6.738;2022-12-29T06:30:21;10.00;63.80
48551;DHT22;34397;51.176;6.738;2022-12-29T06:32:53;9.90;63.30
48551;DHT22;34397;51.176;6.738;2022-12-29T06:35:25;9.90;63.50
48551;DHT22;34397;51.176;6.738;2022-12-29T06:37:57;9.90;63.50
48551;DHT22;34397;51.176;6.738;2022-12-29T06:40:30;9.80;63.30
48551;DHT22;34397;51.176;6.738;2022-12-29T06:43:02;9.80;63.20
48551;DHT22;34397;51.176;6.738;2022-12-29T06:45:34;9.80;63.10
48551;DHT22;34397;51.176;6.738;2022-12-29T06:48:06;9.80;62.60
48551;DHT22;34397;51.176;6.738;2022-12-29T06:50:38;9.70;62.40
48551;DHT22;34397;51.176;6.738;2022-12-29T06:53:10;9.80;62.40
48551;DHT22;34397;51.176;6.738;2022-12-29T06:55:43;9.80;62.80
48551;DHT22;34397;51.176;6.738;2022-12-29T06:58:15;9.80;62.40
48551;DHT22;34397;51.176;6.738;2022-12-29T07:00:47;9.80;62.70
48551;DHT22;34397;51.176;6.738;2022-12-29T07:03:19;9.90;62.40
48551;DHT22;34397;51.176;6.738;2022-12-29T07:05:51;9.90;62.40
48551;DHT22;34397;51.176;6.738;2022-12-29T07:08:24;9.90;61.80
48551;DHT22;34397;51.176;6.738;2022-12-29T07:10:57;9.90;61.70
48551;DHT22;34397;51.176;6.738;2022-12-29T07:13:29;10.00;62.00
48551;DHT22;34397;51.176;6.738;2022-12-29T07:16:05;10.00;62.60
48551;DHT22;34397;51.176;6.738;2022-12-29T07:18:37;10.00;62.30
48551;DHT22;34397;51.176;6.738;2022-12-29T07:21:09;10.00;62.30
48551;DHT22;34397;51.176;6.738;2022-12-29T07:23:42;10.00;62.30
48551;DHT22;34397;51.176;6.738;2022-12-29T07:26:15;10.00;61.90
48551;DHT22;34397;51.176;6.738;2022-12-29T07:28:48;9.90;61.90
48551;DHT22;34397;51.176;6.738;2022-12-29T07:31:21;9.80;61.70
48551;DHT22;34397;51.176;6.738;2022-12-29T07:33:55;9.80;61.90
48551;DHT22;34397;51.176;6.738;2022-12-29T07:36:26;9.80;61.40
48551;DHT22;34397;51.176;6.738;2022-12-29T07:38:59;9.70;62.10
48551;DHT22;34397;51.176;6.738;2022-12-29T07:41:32;9.70;62.20
48551;DHT22;34397;51.176;6.738;2022-12-29T07:44:05;9.70;62.00
48551;DHT22;34397;51.176;6.738;2022-12-29T07:46:36;9.70;62.10
48551;DHT22;34397;51.176;6.738;2022-12-29T07:49:08;9.70;61.40
48551;DHT22;34397;51.176;6.738;2022-12-29T07:51:40;9.70;61.70
48551;DHT22;34397;51.176;6.738;2022-12-29T07:54:12;9.70;61.70
48551;DHT22;34397;51.176;6.738;2022-12-29T07:56:45;9.70;61.20
48551;DHT22;34397;51.176;6.738;2022-12-29T07:59:17;9.70;61.30
48551;DHT22;34397;51.176;6.738;2022-12-29T08:01:49;9.80;61.60
48551;DHT22;34397;51.176;6.738;2022-12-29T08:04:21;9.80;62.00
48551;DHT22;34397;51.176;6.738;2022-12-29T08:06:53;9.70;61.60
48551;DHT22;34397;51.176;6.738;2022-12-29T08:09:25;9.70;61.30
48551;DHT22;34397;51.176;6.738;2022-12-29T08:11:58;9.70;61.30
48551;DHT22;34397;51.176;6.738;2022-12-29T08:14:30;9.70;61.20
48551;DHT22;34397;51.176;6.738;2022-12-29T08:17:02;9.70;60.80
48551;DHT22;34397;51.176;6.738;2022-12-29T08:19:34;9.70;60.80
48551;DHT22;34397;51.176;6.738;2022-12-29T08:22:05;9.70;60.80
48551;DHT22;34397;51.176;6.738;2022-12-29T08:24:37;9.70;60.70
48551;DHT22;34397;51.176;6.738;2022-12-29T08:27:10;9.70;60.80
48551;DHT22;34397;51.176;6.738;2022-12-29T08:29:42;9.60;60.50
48551;DHT22;34397;51.176;6.738;2022-12-29T08:32:14;9.60;60.80
48551;DHT22;34397;51.176;6.738;2022-12-29T08:34:46;9.40;60.40
48551;DHT22;34397;51.176;6.738;2022-12-29T08:37:18;9.40;62.10
48551;DHT22;34397;51.176;6.738;2022-12-29T08:39:50;9.40;64.30
48551;DHT22;34397;51.176;6.738;2022-12-29T08:42:23;9.30;66.70
48551;DHT22;34397;51.176;6.738;2022-12-29T08:44:59;9.30;67.10
48551;DHT22;34397;51.176;6.738;2022-12-29T08:47:31;9.20;67.30
48551;DHT22;34397;51.176;6.738;2022-12-29T08:50:04;9.10;67.60
48551;DHT22;34397;51.176;6.738;2022-12-29T08:52:36;8.90;67.80
48551;DHT22;34397;51.176;6.738;2022-12-29T08:55:09;8.90;68.20
48551;DHT22;34397;51.176;6.738;2022-12-29T08:57:42;8.80;68.50
48551;DHT22;34397;51.176;6.738;2022-12-29T09:00:14;8.80;68.60
48551;DHT22;34397;51.176;6.738;2022-12-29T09:02:46;8.70;68.40
48551;DHT22;34397;51.176;6.738;2022-12-29T09:05:18;8.70;67.90
48551;DHT22;34397;51.176;6.738;2022-12-29T09:07:50;8.70;67.50
48551;DHT22;34397;51.176;6.738;2022-12-29T09:10:21;8.70;66.80
48551;DHT22;34397;51.176;6.738;2022-12-29T09:12:55;8.70;66.90
48551;DHT22;34397;51.176;6.738;2022-12-29T09:15:26;8.80;66.50
48551;DHT22;34397;51.176;6.738;2022-12-29T09:17:58;8.80;65.40
48551;DHT22;34397;51.176;6.738;2022-12-29T09:20:30;8.90;64.90
48551;DHT22;34397;51.176;6.738;2022-12-29T09:23:02;9.00;65.30
48551;DHT22;34397;51.176;6.738;2022-12-29T09:25:34;9.00;64.60
48551;DHT22;34397;51.176;6.738;2022-12-29T09:28:07;9.00;65.30
48551;DHT22;34397;51.176;6.738;2022-12-29T09:30:39;9.00;63.90
48551;DHT22;34397;51.176;6.738;2022-12-29T09:33:10;9.00;63.50
48551;DHT22;34397;51.176;6.738;2022-12-29T09:35:43;9.20;63.90
48551;DHT22;34397;51.176;6.738;2022-12-29T09:38:15;9.30;63.00
48551;DHT22;34397;51.176;6.738;2022-12-29T09:40:51;9.40;61.80
48551;DHT22;34397;51.176;6.738;2022-12-29T09:43:49;9.40;60.60
48551;DHT22;34397;51.176;6.738;2022-12-29T09:46:38;9.30;60.60
48551;DHT22;34397;51.176;6.738;2022-12-29T09:49:19;9.50;61.70
48551;DHT22;34397;51.176;6.738;2022-12-29T09:51:58;9.60;61.10
48551;DHT22;34397;51.176;6.738;2022-12-29T09:54:39;9.50;59.60
48551;DHT22;34397;51.176;6.738;2022-12-29T09:57:19;9.50;58.80
48551;DHT22;34397;51.176;6.738;2022-12-29T09:59:57;9.50;58.00
48551;DHT22;34397;51.176;6.738;2022-12-29T10:02:39;9.60;58.00
48551;DHT22;34397;51.176;6.738;2022-12-29T10:05:34;9.60;57.80
48551;DHT22;34397;51.176;6.738;2022-12-29T10:08:18;9.60;58.30
48551;DHT22;34397;51.176;6.738;2022-12-29T10:11:04;9.80;57.90
48551;DHT22;34397;51.176;6.738;2022-12-29T10:13:53;9.80;56.70
48551;DHT22;34397;51.176;6.738;2022-12-29T10:16:45;9.80;56.80
48551;DHT22;34397;51.176;6.738;2022-12-29T10:19:39;9.90;57.30
48551;DHT22;34397;51.176;6.738;2022-12-29T10:22:28;9.90;57.30
48551;DHT22;34397;51.176;6.738;2022-12-29T10:25:15;9.90;57.10
48551;DHT22;34397;51.176;6.738;2022-12-29T10:27:49;9.90;56.70
48551;DHT22;34397;51.176;6.738;2022-12-29T10:30:22;10.00;57.00
48551;DHT22;34397;51.176;6.738;2022-12-29T10:32:58;10.00;56.70
48551;DHT22;34397;51.176;6.738;2022-12-29T10:35:34;10.00;56.00
48551;DHT22;34397;51.176;6.738;2022-12-29T10:38:15;10.10;56.40
48551;DHT22;34397;51.176;6.738;2022-12-29T10:40:54;10.10;56.60
48551;DHT22;34397;51.176;6.738;2022-12-29T10:43:30;10.10;56.70
48551;DHT22;34397;51.176;6.738;2022-12-29T10:46:08;10.00;56.20
48551;DHT22;34397;51.176;6.738;2022-12-29T10:48:44;10.10;55.90
48551;DHT22;34397;51.176;6.738;2022-12-29T10:51:21;10.10;56.30
48551;DHT22;34397;51.176;6.738;2022-12-29T10:53:59;10.10;55.30
48551;DHT22;34397;51.176;6.738;2022-12-29T10:56:36;10.10;56.20
48551;DHT22;34397;51.176;6.738;2022-12-29T10:59:15;10.20;55.40
48551;DHT22;34397;51.176;6.738;2022-12-29T11:01:55;10.20;55.70
48551;DHT22;34397;51.176;6.738;2022-12-29T11:04:43;10.20;55.50
48551;DHT22;34397;51.176;6.738;2022-12-29T11:07:20;10.20;55.90
48551;DHT22;34397;51.176;6.738;2022-12-29T11:09:52;10.20;56.30
48551;DHT22;34397;51.176;6.738;2022-12-29T11:12:27;10.30;56.40
48551;DHT22;34397;51.176;6.738;2022-12-29T11:15:13;10.30;56.00
48551;DHT22;34397;51.176;6.738;2022-12-29T11:17:48;10.40;56.50
48551;DHT22;34397;51.176;6.738;2022-12-29T11:20:32;10.40;56.70
48551;DHT22;34397;51.176;6.738;2022-12-29T11:23:22;10.40;55.70
48551;DHT22;34397;51.176;6.738;2022-12-29T11:26:07;10.30;55.10
48551;DHT22;34397;51.176;6.738;2022-12-29T11:28:46;10.30;54.70
48551;DHT22;34397;51.176;6.738;2022-12-29T11:31:22;10.20;55.20
48551;DHT22;34397;51.176;6.738;2022-12-29T11:33:53;10.00;54.80
48551;DHT22;34397;51.176;6.738;2022-12-29T11:36:27;10.00;55.50
48551;DHT22;34397;51.176;6.738;2022-12-29T11:39:00;10.00;55.90
48551;DHT22;34397;51.176;6.738;2022-12-29T11:41:32;10.00;54.80
48551;DHT22;34397;51.176;6.738;2022-12-29T11:44:05;10.00;55.20
48551;DHT22;34397;51.176;6.738;2022-12-29T11:46:37;10.10;55.50
48551;DHT22;34397;51.176;6.738;2022-12-29T11:49:12;10.20;54.80
48551;DHT22;34397;51.176;6.738;2022-12-29T11:51:48;10.30;54.80
48551;DHT22;34397;51.176;6.738;2022-12-29T11:54:23;10.40;54.10
48551;DHT22;34397;51.176;6.738;2022-12-29T11:56:57;10.30;54.40
48551;DHT22;34397;51.176;6.738;2022-12-29T11:59:42;10.30;54.40
48551;DHT22;34397;51.176;6.738;2022-12-29T12:02:35;10.20;54.90
48551;DHT22;34397;51.176;6.738;2022-12-29T12:05:25;10.10;54.90
48551;DHT22;34397;51.176;6.738;2022-12-29T12:08:09;10.10;55.30
48551;DHT22;34397;51.176;6.738;2022-12-29T12:10:48;10.10;54.90
48551;DHT22;34397;51.176;6.738;2022-12-29T12:13:26;10.10;55.00
48551;DHT22;34397;51.176;6.738;2022-12-29T12:16:05;10.10;54.70
48551;DHT22;34397;51.176;6.738;2022-12-29T12:18:42;10.10;54.80
48551;DHT22;34397;51.176;6.738;2022-12-29T12:21:23;10.00;55.10
48551;DHT22;34397;51.176;6.738;2022-12-29T12:24:10;9.90;54.90
48551;DHT22;34397;51.176;6.738;2022-12-29T12:26:55;9.90;55.30
48551;DHT22;34397;51.176;6.738;2022-12-29T12:29:36;9.60;56.10
48551;DHT22;34397;51.176;6.738;2022-12-29T12:32:15;9.50;55.30
48551;DHT22;34397;51.176;6.738;2022-12-29T12:34:50;9.40;55.90
48551;DHT22;34397;51.176;6.738;2022-12-29T12:37:42;9.40;56.40
48551;DHT22;34397;51.176;6.738;2022-12-29T12:40:44;9.40;56.10
48551;DHT22;34397;51.176;6.738;2022-12-29T12:43:38;9.50;55.80
48551;DHT22;34397;51.176;6.738;2022-12-29T12:46:29;9.40;55.10
48551;DHT22;34397;51.176;6.738;2022-12-29T12:52:21;9.50;55.90
48551;DHT22;34397;51.176;6.738;2022-12-29T12:55:22;9.60;55.90
48551;DHT22;34397;51.176;6.738;2022-12-29T12:58:14;9.60;56.20
48551;DHT22;34397;51.176;6.738;2022-12-29T13:00:59;9.70;55.50
48551;DHT22;34397;51.176;6.738;2022-12-29T13:03:48;9.70;55.10
48551;DHT22;34397;51.176;6.738;2022-12-29T13:06:34;9.70;55.40
48551;DHT22;34397;51.176;6.738;2022-12-29T13:09:27;9.50;55.50
48551;DHT22;34397;51.176;6.738;2022-12-29T13:12:13;9.50;56.00
48551;DHT22;34397;51.176;6.738;2022-12-29T13:14:59;9.50;55.80
48551;DHT22;34397;51.176;6.738;2022-12-29T13:17:45;9.50;55.90
48551;DHT22;34397;51.176;6.738;2022-12-29T13:20:27;9.50;55.90
48551;DHT22;34397;51.176;6.738;2022-12-29T13:23:18;9.50;56.50
48551;DHT22;34397;51.176;6.738;2022-12-29T13:26:01;9.70;57.00
48551;DHT22;34397;51.176;6.738;2022-12-29T13:28:48;9.70;56.90
48551;DHT22;34397;51.176;6.738;2022-12-29T13:31:28;9.80;56.90
48551;DHT22;34397;51.176;6.738;2022-12-29T13:34:12;9.90;56.50
48551;DHT22;34397;51.176;6.738;2022-12-29T13:36:49;10.00;56.00
48551;DHT22;34397;51.176;6.738;2022-12-29T13:39:27;10.10;56.20
48551;DHT22;34397;51.176;6.738;2022-12-29T13:42:04;10.20;56.40
48551;DHT22;34397;51.176;6.738;2022-12-29T13:44:38;10.30;53.60
48551;DHT22;34397;51.176;6.738;2022-12-29T13:47:18;10.20;54.20
48551;DHT22;34397;51.176;6.738;2022-12-29T13:49:57;10.30;54.10
48551;DHT22;34397;51.176;6.738;2022-12-29T13:52:35;10.30;53.20
48551;DHT22;34397;51.176;6.738;2022-12-29T13:55:21;10.30;52.90
48551;DHT22;34397;51.176;6.738;2022-12-29T13:58:01;10.20;53.50
48551;DHT22;34397;51.176;6.738;2022-12-29T14:00:44;10.10;53.30
48551;DHT22;34397;51.176;6.738;2022-12-29T14:03:42;10.00;53.30
48551;DHT22;34397;51.176;6.738;2022-12-29T14:06:24;10.00;53.30
48551;DHT22;34397;51.176;6.738;2022-12-29T14:08:58;10.00;53.70
48551;DHT22;34397;51.176;6.738;2022-12-29T14:11:33;10.00;54.00
48551;DHT22;34397;51.176;6.738;2022-12-29T14:14:12;10.00;54.10
48551;DHT22;34397;51.176;6.738;2022-12-29T14:16:47;9.90;53.60
48551;DHT22;34397;51.176;6.738;2022-12-29T14:19:24;9.80;54.30
48551;DHT22;34397;51.176;6.738;2022-12-29T14:22:01;9.70;54.70
48551;DHT22;34397;51.176;6.738;2022-12-29T14:24:42;9.70;54.40
48551;DHT22;34397;51.176;6.738;2022-12-29T14:30:58;9.70;55.30
48551;DHT22;34397;51.176;6.738;2022-12-29T14:33:33;9.60;54.40
48551;DHT22;34397;51.176;6.738;2022-12-29T14:36:23;9.60;54.50
48551;DHT22;34397;51.176;6.738;2022-12-29T14:38:57;9.60;54.50
48551;DHT22;34397;51.176;6.738;2022-12-29T14:41:32;9.60;54.70
48551;DHT22;34397;51.176;6.738;2022-12-29T14:44:17;9.60;54.70
48551;DHT22;34397;51.176;6.738;2022-12-29T14:46:56;9.50;55.00
48551;DHT22;34397;51.176;6.738;2022-12-29T14:49:33;9.50;55.00
48551;DHT22;34397;51.176;6.738;2022-12-29T14:52:17;9.50;55.20
48551;DHT22;34397;51.176;6.738;2022-12-29T14:54:53;9.40;54.90
48551;DHT22;34397;51.176;6.738;2022-12-29T14:57:32;9.50;55.60
48551;DHT22;34397;51.176;6.738;2022-12-29T15:00:15;9.40;55.50
48551;DHT22;34397;51.176;6.738;2022-12-29T15:02:52;9.40;55.50
48551;DHT22;34397;51.176;6.738;2022-12-29T15:05:36;9.50;55.50
48551;DHT22;34397;51.176;6.738;2022-12-29T15:08:16;9.50;55.70
48551;DHT22;34397;51.176;6.738;2022-12-29T15:10:53;9.50;55.70
48551;DHT22;34397;51.176;6.738;2022-12-29T15:13:33;9.40;55.50
48551;DHT22;34397;51.176;6.738;2022-12-29T15:16:21;9.40;55.30
48551;DHT22;34397;51.176;6.738;2022-12-29T15:18:54;9.40;55.60
48551;DHT22;34397;51.176;6.738;2022-12-29T15:21:30;9.40;55.30
48551;DHT22;34397;51.176;6.738;2022-12-29T15:24:03;9.30;55.30
48551;DHT22;34397;51.176;6.738;2022-12-29T15:26:37;9.30;55.60
48551;DHT22;34397;51.176;6.738;2022-12-29T15:29:28;9.30;55.70
48551;DHT22;34397;51.176;6.738;2022-12-29T15:32:16;9.20;55.80
48551;DHT22;34397;51.176;6.738;2022-12-29T15:34:51;9.30;55.70
48551;DHT22;34397;51.176;6.738;2022-12-29T15:37:27;9.30;56.10
48551;DHT22;34397;51.176;6.738;2022-12-29T15:40:00;9.30;55.70
48551;DHT22;34397;51.176;6.738;2022-12-29T15:42:50;9.20;55.70
48551;DHT22;34397;51.176;6.738;2022-12-29T15:45:30;9.20;55.90
48551;DHT22;34397;51.176;6.738;2022-12-29T15:48:05;9.20;55.80
48551;DHT22;34397;51.176;6.738;2022-12-29T15:50:45;9.20;55.60
48551;DHT22;34397;51.176;6.738;2022-12-29T15:53:21;9.20;55.30
48551;DHT22;34397;51.176;6.738;2022-12-29T15:56:00;9.20;55.60
48551;DHT22;34397;51.176;6.738;2022-12-29T15:58:40;9.30;55.50
48551;DHT22;34397;51.176;6.738;2022-12-29T16:01:19;9.20;55.60
48551;DHT22;34397;51.176;6.738;2022-12-29T16:04:05;9.20;55.70
48551;DHT22;34397;51.176;6.738;2022-12-29T16:06:39;9.20;55.40
48551;DHT22;34397;51.176;6.738;2022-12-29T16:09:18;9.20;55.40
48551;DHT22;34397;51.176;6.738;2022-12-29T16:12:02;9.20;55.30
48551;DHT22;34397;51.176;6.738;2022-12-29T16:14:40;9.10;55.20
48551;DHT22;34397;51.176;6.738;2022-12-29T16:17:15;9.10;55.10
48551;DHT22;34397;51.176;6.738;2022-12-29T16:19:52;9.10;55.20
48551;DHT22;34397;51.176;6.738;2022-12-29T16:22:29;9.00;55.10
48551;DHT22;34397;51.176;6.738;2022-12-29T16:25:18;9.00;55.20
48551;DHT22;34397;51.176;6.738;2022-12-29T16:27:52;8.90;55.40
48551;DHT22;34397;51.176;6.738;2022-12-29T16:30:26;8.90;55.30
48551;DHT22;34397;51.176;6.738;2022-12-29T16:33:01;8.90;55.60
48551;DHT22;34397;51.176;6.738;2022-12-29T16:35:44;8.80;55.50
48551;DHT22;34397;51.176;6.738;2022-12-29T16:38:19;8.80;55.70
48551;DHT22;34397;51.176;6.738;2022-12-29T16:40:54;8.80;55.70
48551;DHT22;34397;51.176;6.738;2022-12-29T16:43:28;8.70;55.90
48551;DHT22;34397;51.176;6.738;2022-12-29T16:46:21;8.70;56.20
48551;DHT22;34397;51.176;6.738;2022-12-29T16:48:57;8.70;56.70
48551;DHT22;34397;51.176;6.738;2022-12-29T16:51:31;8.70;56.20